Time;durP1;ratioP1;P1;durP2;ratioP2;P2;SDS_P1;SDS_P2;PMS_P1;PMS_P2;Temp;Humidity;BMP_temperature;BMP_pressure;BME280_temperature;BME280_humidity;BME280_pressure;Samples;Min_cycle;Max_cycle;Signal;HPM_P1;HPM_P2
2023/03/15 00:01:56;;;;;;;1.25;0.73;;;;;;;;;;5508681;23;20036;-59
2023/03/15 00:04:06;;;;;;;1.35;0.85;;;;;;;;;;5508968;23;27408;-59
2023/03/15 00:06:17;;;;;;;1.42;0.60;;;;;;;;;;5509662;23;20002;-59
2023/03/15 00:08:27;;;;;;;0.90;0.60;;;;;;;;;;5482940;23;21938;-59
2023/03/15 00:10:45;;;;;;;1.15;0.60;;;;;;;;;;5508314;23;38277;-59
2023/03/15 00:12:55;;;;;;;1.25;0.68;;;;;;;;;;5509843;23;20010;-59
2023/03/15 00:15:06;;;;;;;1.02;0.60;;;;;;;;;;5483404;23;26771;-59
2023/03/15 00:17:16;;;;;;;1.20;0.60;;;;;;;;;;5510956;23;20445;-59
2023/03/15 00:19:27;;;;;;;0.60;0.60;;;;;;;;;;5483620;23;20007;-59
2023/03/15 00:21:41;;;;;;;1.17;0.60;;;;;;;;;;5508850;23;33724;-59
2023/03/15 00:23:52;;;;;;;0.95;0.70;;;;;;;;;;5483612;23;20566;-59
2023/03/15 00:26:02;;;;;;;0.90;0.50;;;;;;;;;;5509061;23;20085;-59
2023/03/15 00:28:13;;;;;;;0.90;0.57;;;;;;;;;;5482987;23;20014;-59
2023/03/15 00:30:23;;;;;;;1.17;0.70;;;;;;;;;;5458593;23;20100;-59
2023/03/15 00:32:34;;;;;;;0.55;0.55;;;;;;;;;;5482742;23;26960;-59
2023/03/15 00:34:47;;;;;;;1.13;0.60;;;;;;;;;;5509294;23;20025;-59
2023/03/15 00:36:58;;;;;;;0.90;0.60;;;;;;;;;;5483007;23;20096;-59
2023/03/15 00:39:09;;;;;;;1.58;0.60;;;;;;;;;;5483267;23;20140;-59
2023/03/15 00:41:20;;;;;;;1.40;0.68;;;;;;;;;;5458833;23;20030;-59
2023/03/15 00:43:31;;;;;;;1.25;0.57;;;;;;;;;;5509376;23;20006;-59
2023/03/15 00:45:44;;;;;;;0.90;0.70;;;;;;;;;;5483271;23;20069;-59
2023/03/15 00:47:54;;;;;;;0.85;0.50;;;;;;;;;;5483375;23;20014;-59
2023/03/15 00:50:04;;;;;;;0.90;0.60;;;;;;;;;;5482895;23;34252;-59
2023/03/15 00:52:16;;;;;;;0.60;0.60;;;;;;;;;;5509592;23;20790;-59
2023/03/15 00:54:28;;;;;;;1.23;0.70;;;;;;;;;;5482289;23;20544;-59
2023/03/15 00:56:40;;;;;;;1.80;0.82;;;;;;;;;;5482952;23;20014;-59
2023/03/15 00:58:53;;;;;;;0.75;0.50;;;;;;;;;;5510229;23;20012;-59
2023/03/15 01:01:19;;;;;;;1.58;0.70;;;;;;;;;;5459642;23;20526;-59
2023/03/15 01:03:30;;;;;;;1.13;0.70;;;;;;;;;;5483696;23;20018;-59
2023/03/15 01:05:40;;;;;;;1.40;0.45;;;;;;;;;;5509870;23;20025;-59
2023/03/15 01:07:51;;;;;;;0.85;0.50;;;;;;;;;;5482318;23;21696;-59
2023/03/15 01:10:03;;;;;;;1.33;0.63;;;;;;;;;;5483607;23;20076;-59
2023/03/15 01:12:14;;;;;;;0.73;0.52;;;;;;;;;;5482971;23;20586;-58
2023/03/15 01:14:24;;;;;;;0.80;0.50;;;;;;;;;;5509612;23;20033;-58
2023/03/15 01:16:35;;;;;;;1.00;0.60;;;;;;;;;;5482849;23;20050;-59
2023/03/15 01:18:46;;;;;;;1.00;0.50;;;;;;;;;;5458837;23;20018;-58
2023/03/15 01:20:56;;;;;;;0.93;0.50;;;;;;;;;;5483113;23;20017;-59
2023/03/15 01:23:07;;;;;;;0.98;0.40;;;;;;;;;;5458619;23;20601;-58
2023/03/15 01:25:17;;;;;;;0.80;0.30;;;;;;;;;;5481943;23;43378;-59
2023/03/15 01:27:28;;;;;;;0.95;0.50;;;;;;;;;;5482929;23;20015;-58
2023/03/15 01:29:39;;;;;;;1.00;0.60;;;;;;;;;;5483435;23;20023;-59
2023/03/15 01:31:50;;;;;;;1.13;0.50;;;;;;;;;;5483079;23;20019;-59
2023/03/15 01:34:01;;;;;;;0.77;0.40;;;;;;;;;;5508803;23;27570;-59
2023/03/15 01:36:15;;;;;;;0.60;0.40;;;;;;;;;;5483503;23;20077;-58
2023/03/15 01:38:26;;;;;;;0.95;0.50;;;;;;;;;;5509690;23;19994;-59
2023/03/15 01:40:41;;;;;;;0.80;0.47;;;;;;;;;;5458169;23;20360;-59
2023/03/15 01:43:04;;;;;;;0.88;0.40;;;;;;;;;;5478422;23;20013;-58
2023/03/15 01:45:53;;;;;;;0.63;0.40;;;;;;;;;;5458348;23;20011;-59
2023/03/15 01:48:04;;;;;;;;;;;;;;;;;;5482959;23;20630;-60
2023/03/15 01:50:14;;;;;;;0.45;0.40;;;;;;;;;;5458005;23;19963;-58
2023/03/15 01:52:29;;;;;;;0.32;0.28;;;;;;;;;;5482243;23;20011;-59
2023/03/15 01:55:05;;;;;;;0.20;0.20;;;;;;;;;;5483464;23;20018;-58
2023/03/15 01:57:30;;;;;;;0.20;0.20;;;;;;;;;;5482297;23;20556;-58
2023/03/15 01:59:50;;;;;;;0.32;0.30;;;;;;;;;;5459038;23;20026;-59
2023/03/15 02:02:00;;;;;;;;;;;;;;;;;;5482992;23;20041;-59
2023/03/15 02:04:15;;;;;;;0.30;0.30;;;;;;;;;;5458201;23;19980;-58
2023/03/15 02:06:28;;;;;;;0.30;0.30;;;;;;;;;;5481702;23;20531;-59
2023/03/15 02:08:42;;;;;;;0.50;0.40;;;;;;;;;;5482216;23;20050;-59
2023/03/15 02:10:57;;;;;;;0.65;0.50;;;;;;;;;;5458593;23;20027;-58
2023/03/15 02:13:10;;;;;;;0.40;0.35;;;;;;;;;;5460192;23;20007;-58
2023/03/15 02:15:20;;;;;;;0.60;0.50;;;;;;;;;;5458005;23;20022;-58
2023/03/15 02:17:36;;;;;;;0.45;0.40;;;;;;;;;;5482122;23;20557;-58
2023/03/15 02:20:07;;;;;;;0.50;0.50;;;;;;;;;;5433883;23;20008;-58
2023/03/15 02:22:41;;;;;;;0.57;0.40;;;;;;;;;;5482997;23;20064;-58
2023/03/15 02:24:59;;;;;;;0.50;0.50;;;;;;;;;;5458623;23;20608;-58
2023/03/15 02:27:10;;;;;;;0.40;0.40;;;;;;;;;;5508680;23;20010;-57
2023/03/15 02:29:22;;;;;;;0.65;0.50;;;;;;;;;;5482671;23;20010;-58
2023/03/15 02:31:36;;;;;;;0.40;0.40;;;;;;;;;;5483273;23;20066;-58
2023/03/15 02:33:51;;;;;;;0.60;0.40;;;;;;;;;;5510015;23;20014;-58
2023/03/15 02:36:10;;;;;;;0.40;0.40;;;;;;;;;;5457995;23;20938;-59
2023/03/15 02:38:21;;;;;;;0.50;0.50;;;;;;;;;;5456884;23;20015;-58
2023/03/15 02:40:31;;;;;;;0.77;0.50;;;;;;;;;;5457590;23;20732;-58
2023/03/15 02:42:45;;;;;;;0.40;0.40;;;;;;;;;;5508189;23;20006;-58
2023/03/15 02:44:56;;;;;;;0.55;0.50;;;;;;;;;;5481675;23;20014;-58
2023/03/15 02:47:10;;;;;;;0.68;0.40;;;;;;;;;;5457698;23;27812;-58
2023/03/15 02:49:23;;;;;;;0.40;0.40;;;;;;;;;;5482038;23;20022;-58
2023/03/15 02:51:33;;;;;;;0.77;0.60;;;;;;;;;;5457478;23;20438;-58
2023/03/15 02:53:44;;;;;;;0.60;0.50;;;;;;;;;;5482236;23;20006;-58
2023/03/15 02:55:54;;;;;;;0.80;0.50;;;;;;;;;;5481925;23;20039;-58
2023/03/15 02:58:05;;;;;;;1.02;0.60;;;;;;;;;;5482328;23;20053;-58
2023/03/15 03:00:15;;;;;;;0.63;0.57;;;;;;;;;;5457349;23;20453;-58
2023/03/15 03:02:27;;;;;;;0.60;0.60;;;;;;;;;;5481550;23;20695;-58
2023/03/15 03:04:38;;;;;;;0.90;0.70;;;;;;;;;;5481971;23;20555;-58
2023/03/15 03:06:49;;;;;;;1.08;0.80;;;;;;;;;;5481701;23;20050;-58
2023/03/15 03:09:04;;;;;;;0.70;0.70;;;;;;;;;;5481730;23;20082;-58
2023/03/15 03:11:15;;;;;;;0.88;0.70;;;;;;;;;;5433006;23;20721;-58
2023/03/15 03:13:25;;;;;;;1.02;0.77;;;;;;;;;;5482369;23;20189;-58
2023/03/15 03:15:36;;;;;;;0.70;0.70;;;;;;;;;;5482141;23;20102;-58
2023/03/15 03:17:46;;;;;;;1.70;0.80;;;;;;;;;;5482403;23;20038;-58
2023/03/15 03:19:57;;;;;;;0.68;0.60;;;;;;;;;;5483025;23;20010;-59
2023/03/15 03:22:15;;;;;;;0.90;0.85;;;;;;;;;;5482942;23;20159;-59
2023/03/15 03:24:25;;;;;;;1.33;0.90;;;;;;;;;;5483510;23;20070;-58
2023/03/15 03:26:37;;;;;;;1.35;1.00;;;;;;;;;;5482882;23;20010;-58
2023/03/15 03:28:48;;;;;;;0.85;0.85;;;;;;;;;;5509619;23;20441;-58
2023/03/15 03:30:59;;;;;;;1.42;1.00;;;;;;;;;;5482751;23;20058;-58
2023/03/15 03:33:10;;;;;;;1.60;1.00;;;;;;;;;;5483078;23;20093;-58
2023/03/15 03:35:21;;;;;;;0.73;0.73;;;;;;;;;;5482741;23;27702;-58
2023/03/15 03:37:31;;;;;;;2.05;1.02;;;;;;;;;;5483192;23;20572;-58
2023/03/15 03:39:48;;;;;;;;;;;;;;;;;;5483687;23;19998;-58
2023/03/15 03:41:59;;;;;;;1.00;0.90;;;;;;;;;;5482698;23;20279;-58
2023/03/15 03:44:10;;;;;;;1.33;1.10;;;;;;;;;;5458263;23;20003;-58
2023/03/15 03:46:21;;;;;;;1.35;1.08;;;;;;;;;;5482955;23;20351;-58
2023/03/15 03:48:36;;;;;;;1.52;1.00;;;;;;;;;;5483300;23;20011;-59
2023/03/15 03:50:46;;;;;;;1.10;0.90;;;;;;;;;;5483013;23;20014;-58
2023/03/15 03:52:56;;;;;;;1.00;0.93;;;;;;;;;;5509123;23;20690;-58
2023/03/15 03:55:15;;;;;;;1.52;1.00;;;;;;;;;;5482770;23;20014;-58
2023/03/15 03:57:26;;;;;;;1.20;1.02;;;;;;;;;;5458461;23;20802;-58
2023/03/15 03:59:37;;;;;;;1.10;1.00;;;;;;;;;;5482666;23;25375;-58
2023/03/15 04:01:50;;;;;;;0.80;0.80;;;;;;;;;;5482663;23;20017;-58
2023/03/15 04:04:00;;;;;;;1.20;1.00;;;;;;;;;;5482853;23;20014;-59
2023/03/15 04:06:12;;;;;;;1.33;0.90;;;;;;;;;;5482438;23;20021;-58
2023/03/15 04:08:26;;;;;;;1.25;1.00;;;;;;;;;;5482451;23;20551;-59
2023/03/15 04:10:37;;;;;;;1.60;1.00;;;;;;;;;;5458308;23;20015;-58
2023/03/15 04:12:48;;;;;;;1.20;1.10;;;;;;;;;;5482818;23;20019;-58
2023/03/15 04:14:58;;;;;;;1.40;1.13;;;;;;;;;;5459152;23;20006;-58
2023/03/15 04:17:12;;;;;;;1.83;1.00;;;;;;;;;;5483852;23;20101;-58
2023/03/15 04:19:24;;;;;;;1.40;1.20;;;;;;;;;;5482034;23;20011;-58
2023/03/15 04:21:36;;;;;;;1.70;1.10;;;;;;;;;;5478939;23;20551;-57
2023/03/15 04:24:02;;;;;;;1.35;1.15;;;;;;;;;;5484159;23;20007;-57
2023/03/15 04:26:27;;;;;;;1.10;1.00;;;;;;;;;;5511469;23;20010;-59
2023/03/15 04:28:57;;;;;;;0.80;0.80;;;;;;;;;;5484487;23;20018;-60
2023/03/15 04:31:36;;;;;;;1.17;1.10;;;;;;;;;;5484794;23;20014;-59
2023/03/15 04:33:59;;;;;;;1.10;1.00;;;;;;;;;;5511083;23;20072;-60
2023/03/15 04:36:29;;;;;;;1.08;0.98;;;;;;;;;;5509767;23;20137;-59
2023/03/15 04:39:15;;;;;;;1.40;1.10;;;;;;;;;;5429510;23;20746;-60
2023/03/15 04:41:44;;;;;;;1.25;1.15;;;;;;;;;;5493694;23;20572;-59
2023/03/15 04:44:10;;;;;;;1.05;1.00;;;;;;;;;;5484768;23;20006;-60
2023/03/15 04:46:39;;;;;;;1.30;1.10;;;;;;;;;;5483763;23;20018;-60
2023/03/15 04:49:09;;;;;;;1.30;1.20;;;;;;;;;;5488055;23;20760;-60
2023/03/15 04:51:46;;;;;;;1.20;1.10;;;;;;;;;;5455822;23;20089;-60
2023/03/15 04:54:08;;;;;;;1.33;1.20;;;;;;;;;;5484045;23;20033;-60
2023/03/15 04:56:35;;;;;;;1.20;1.15;;;;;;;;;;5484631;23;20011;-60
2023/03/15 04:58:54;;;;;;;1.33;1.23;;;;;;;;;;5484692;23;20062;-60
2023/03/15 05:01:17;;;;;;;1.42;1.10;;;;;;;;;;5485319;23;20011;-60
2023/03/15 05:03:41;;;;;;;1.35;1.10;;;;;;;;;;5441433;23;20010;-60
2023/03/15 05:06:10;;;;;;;1.25;1.10;;;;;;;;;;5511224;23;21292;-60
2023/03/15 05:08:38;;;;;;;1.13;1.10;;;;;;;;;;5484776;23;20332;-61
2023/03/15 05:11:03;;;;;;;1.15;1.05;;;;;;;;;;5484956;23;20021;-60
2023/03/15 05:13:32;;;;;;;1.20;1.10;;;;;;;;;;5511501;23;20010;-60
2023/03/15 05:16:03;;;;;;;0.93;0.90;;;;;;;;;;5489681;23;20080;-60
2023/03/15 05:18:25;;;;;;;1.50;1.40;;;;;;;;;;5510882;23;20049;-60
2023/03/15 05:20:54;;;;;;;1.20;1.10;;;;;;;;;;5484480;23;20021;-60
2023/03/15 05:23:33;;;;;;;1.40;1.00;;;;;;;;;;5478636;23;21016;-60
2023/03/15 05:26:07;;;;;;;1.20;1.10;;;;;;;;;;5485052;23;20025;-60
2023/03/15 05:28:36;;;;;;;1.05;0.98;;;;;;;;;;5511421;23;20018;-60
2023/03/15 05:30:53;;;;;;;1.17;1.08;;;;;;;;;;5484548;23;20014;-60
2023/03/15 05:33:24;;;;;;;1.10;0.98;;;;;;;;;;5463640;23;20523;-60
2023/03/15 05:35:55;;;;;;;1.10;1.00;;;;;;;;;;5488871;23;20018;-60
2023/03/15 05:38:38;;;;;;;0.95;0.95;;;;;;;;;;5485257;23;20711;-60
2023/03/15 05:41:08;;;;;;;1.10;1.00;;;;;;;;;;5484108;23;20010;-60
2023/03/15 05:43:49;;;;;;;1.23;1.13;;;;;;;;;;5484459;23;20092;-60
2023/03/15 05:46:15;;;;;;;0.90;0.90;;;;;;;;;;5511426;23;20025;-60
2023/03/15 05:48:41;;;;;;;1.13;1.10;;;;;;;;;;5485431;23;20010;-60
2023/03/15 05:51:17;;;;;;;1.23;1.10;;;;;;;;;;5505552;23;20917;-60
2023/03/15 05:53:48;;;;;;;0.90;0.90;;;;;;;;;;5510682;23;20006;-60
2023/03/15 05:56:15;;;;;;;1.17;1.07;;;;;;;;;;5510358;23;20071;-59
2023/03/15 05:58:25;;;;;;;1.20;1.10;;;;;;;;;;5483928;23;20367;-60
2023/03/15 06:00:54;;;;;;;1.55;1.02;;;;;;;;;;5509949;23;20558;-60
2023/03/15 06:03:23;;;;;;;1.00;0.90;;;;;;;;;;5484271;23;20761;-60
2023/03/15 06:05:43;;;;;;;0.95;0.95;;;;;;;;;;5483734;23;20626;-60
2023/03/15 06:07:58;;;;;;;1.00;0.90;;;;;;;;;;5482876;23;20563;-59
2023/03/15 06:10:10;;;;;;;1.00;0.90;;;;;;;;;;5482559;23;20088;-59
2023/03/15 06:12:20;;;;;;;1.10;1.00;;;;;;;;;;5482740;23;20010;-60
2023/03/15 06:14:32;;;;;;;1.00;1.00;;;;;;;;;;5483095;23;20101;-59
2023/03/15 06:16:48;;;;;;;0.90;0.90;;;;;;;;;;5483112;23;20045;-59
2023/03/15 06:18:59;;;;;;;1.38;1.17;;;;;;;;;;5459166;23;20118;-59
2023/03/15 06:21:09;;;;;;;1.10;1.00;;;;;;;;;;5482358;23;20517;-59
2023/03/15 06:23:20;;;;;;;1.08;0.98;;;;;;;;;;5458584;23;20011;-60
2023/03/15 06:25:31;;;;;;;1.50;1.20;;;;;;;;;;5482736;23;20010;-59
2023/03/15 06:27:42;;;;;;;1.20;1.10;;;;;;;;;;5482448;23;20014;-59
2023/03/15 06:29:53;;;;;;;0.95;0.90;;;;;;;;;;5481380;23;20018;-59
2023/03/15 06:32:06;;;;;;;1.20;1.10;;;;;;;;;;5482369;23;20003;-59
2023/03/15 06:34:20;;;;;;;1.13;1.02;;;;;;;;;;5481830;23;20524;-59
2023/03/15 06:36:30;;;;;;;1.00;0.95;;;;;;;;;;5482579;23;20014;-59
2023/03/15 06:38:41;;;;;;;0.90;0.90;;;;;;;;;;5509063;23;20010;-58
2023/03/15 06:40:51;;;;;;;0.98;0.90;;;;;;;;;;5481729;23;20014;-58
2023/03/15 06:43:04;;;;;;;0.80;0.80;;;;;;;;;;5481873;23;20014;-58
2023/03/15 06:45:16;;;;;;;1.00;0.90;;;;;;;;;;5458345;23;20015;-58
2023/03/15 06:47:28;;;;;;;0.80;0.80;;;;;;;;;;5482896;23;20575;-58
2023/03/15 06:49:38;;;;;;;0.95;0.95;;;;;;;;;;5482381;23;20045;-58
2023/03/15 06:51:49;;;;;;;1.00;1.00;;;;;;;;;;5483566;23;20377;-59
2023/03/15 06:53:59;;;;;;;0.90;0.90;;;;;;;;;;5459955;23;20014;-59
2023/03/15 06:56:10;;;;;;;1.40;1.13;;;;;;;;;;5484370;23;20255;-59
2023/03/15 06:58:21;;;;;;;1.10;1.00;;;;;;;;;;5484692;23;20066;-59
2023/03/15 07:00:31;;;;;;;1.10;1.00;;;;;;;;;;5509933;23;29644;-59
2023/03/15 07:02:42;;;;;;;1.27;1.05;;;;;;;;;;5509620;23;20487;-59
2023/03/15 07:04:52;;;;;;;0.88;0.88;;;;;;;;;;5483411;23;43593;-59
2023/03/15 07:07:03;;;;;;;0.90;0.90;;;;;;;;;;5509374;23;38103;-59
2023/03/15 07:09:13;;;;;;;1.00;1.00;;;;;;;;;;5510129;23;20014;-60
2023/03/15 07:11:24;;;;;;;0.82;0.82;;;;;;;;;;5508601;23;40219;-59
2023/03/15 07:13:34;;;;;;;1.20;1.10;;;;;;;;;;5483215;23;29090;-60
2023/03/15 07:15:46;;;;;;;0.80;0.80;;;;;;;;;;5484701;23;23343;-60
2023/03/15 07:17:56;;;;;;;0.95;0.90;;;;;;;;;;5510723;23;20021;-60
2023/03/15 07:20:08;;;;;;;1.17;0.90;;;;;;;;;;5482647;23;31738;-59
2023/03/15 07:22:18;;;;;;;0.80;0.80;;;;;;;;;;5510689;23;20057;-60
2023/03/15 07:24:29;;;;;;;0.93;0.70;;;;;;;;;;5483973;23;20680;-60
2023/03/15 07:26:39;;;;;;;0.88;0.80;;;;;;;;;;5484320;23;20017;-62
2023/03/15 07:28:50;;;;;;;0.77;0.77;;;;;;;;;;5509711;23;31168;-60
2023/03/15 07:31:02;;;;;;;0.80;0.80;;;;;;;;;;5510667;23;20025;-60
2023/03/15 07:33:13;;;;;;;0.77;0.70;;;;;;;;;;5510662;23;20672;-60
2023/03/15 07:35:23;;;;;;;0.60;0.60;;;;;;;;;;5483667;23;21828;-60
2023/03/15 07:37:33;;;;;;;0.60;0.60;;;;;;;;;;5510378;23;20021;-60
2023/03/15 07:39:44;;;;;;;0.73;0.70;;;;;;;;;;5509670;23;20009;-60
2023/03/15 07:41:54;;;;;;;0.95;0.80;;;;;;;;;;5510840;23;20092;-60
2023/03/15 07:44:14;;;;;;;1.17;0.70;;;;;;;;;;5483805;23;20579;-60
2023/03/15 07:46:24;;;;;;;1.45;0.80;;;;;;;;;;5509398;23;29188;-60
2023/03/15 07:48:35;;;;;;;1.02;0.90;;;;;;;;;;5484531;23;20011;-60
2023/03/15 07:50:45;;;;;;;0.70;0.70;;;;;;;;;;5511173;23;20065;-60
2023/03/15 07:52:56;;;;;;;0.70;0.70;;;;;;;;;;5484131;23;20014;-60
2023/03/15 07:55:07;;;;;;;0.82;0.82;;;;;;;;;;5509044;23;20068;-60
2023/03/15 07:57:18;;;;;;;0.80;0.80;;;;;;;;;;5510125;23;20013;-60
2023/03/15 07:59:28;;;;;;;0.60;0.60;;;;;;;;;;5510162;23;20357;-60
2023/03/15 08:01:39;;;;;;;0.80;0.70;;;;;;;;;;5509345;23;20021;-60
2023/03/15 08:03:49;;;;;;;0.77;0.70;;;;;;;;;;5508749;23;36206;-60
2023/03/15 08:05:59;;;;;;;1.30;0.63;;;;;;;;;;5483607;23;20002;-60
2023/03/15 08:08:10;;;;;;;1.00;0.70;;;;;;;;;;5509019;23;28693;-60
2023/03/15 08:10:20;;;;;;;0.80;0.77;;;;;;;;;;5509347;23;20013;-60
2023/03/15 08:12:32;;;;;;;0.60;0.60;;;;;;;;;;5510035;23;20006;-60
2023/03/15 08:14:42;;;;;;;0.70;0.70;;;;;;;;;;5510237;23;20109;-60
2023/03/15 08:16:52;;;;;;;0.80;0.70;;;;;;;;;;5508899;23;20081;-60
2023/03/15 08:19:03;;;;;;;0.65;0.60;;;;;;;;;;5509057;23;20009;-60
2023/03/15 08:21:13;;;;;;;0.52;0.52;;;;;;;;;;5507306;23;25505;-59
2023/03/15 08:23:24;;;;;;;0.63;0.63;;;;;;;;;;5458242;23;20431;-60
2023/03/15 08:25:39;;;;;;;0.85;0.60;;;;;;;;;;5508446;23;20006;-60
2023/03/15 08:27:50;;;;;;;0.65;0.65;;;;;;;;;;5482644;23;20034;-60
2023/03/15 08:30:00;;;;;;;1.42;0.82;;;;;;;;;;5508084;23;20022;-60
2023/03/15 08:32:11;;;;;;;1.13;0.80;;;;;;;;;;5508940;23;20014;-60
2023/03/15 08:34:22;;;;;;;0.77;0.70;;;;;;;;;;5508740;23;20010;-60
2023/03/15 08:36:33;;;;;;;1.15;0.88;;;;;;;;;;5482036;23;20002;-60
2023/03/15 08:38:43;;;;;;;1.02;0.60;;;;;;;;;;5482233;23;28514;-60
2023/03/15 08:40:57;;;;;;;0.65;0.65;;;;;;;;;;5482024;23;20509;-59
2023/03/15 08:43:07;;;;;;;0.93;0.65;;;;;;;;;;5509042;23;20014;-59
2023/03/15 08:45:18;;;;;;;1.40;0.90;;;;;;;;;;5509340;23;20025;-59
2023/03/15 08:47:29;;;;;;;0.80;0.80;;;;;;;;;;5482839;23;20047;-59
2023/03/15 08:49:39;;;;;;;0.68;0.68;;;;;;;;;;5508323;23;20528;-59
2023/03/15 08:51:50;;;;;;;0.90;0.63;;;;;;;;;;5482732;23;20022;-60
2023/03/15 08:54:03;;;;;;;1.10;0.80;;;;;;;;;;5482213;23;20007;-59
2023/03/15 08:56:13;;;;;;;0.90;0.77;;;;;;;;;;5508082;23;20014;-59
2023/03/15 08:58:23;;;;;;;1.27;0.85;;;;;;;;;;5508332;23;20002;-59
2023/03/15 09:00:34;;;;;;;0.63;0.63;;;;;;;;;;5481939;23;20011;-59
2023/03/15 09:02:47;;;;;;;1.13;0.80;;;;;;;;;;5507499;23;20112;-59
2023/03/15 09:04:57;;;;;;;0.82;0.82;;;;;;;;;;5508105;23;20013;-59
2023/03/15 09:07:08;;;;;;;1.45;1.08;;;;;;;;;;5508049;23;20018;-59
2023/03/15 09:09:18;;;;;;;1.73;1.35;;;;;;;;;;5481836;23;20081;-59
2023/03/15 09:11:29;;;;;;;1.20;1.10;;;;;;;;;;5507738;23;20009;-59
2023/03/15 09:13:39;;;;;;;1.92;1.40;;;;;;;;;;5509034;23;20013;-59
2023/03/15 09:15:51;;;;;;;1.10;1.00;;;;;;;;;;5509020;23;20336;-59
2023/03/15 09:18:01;;;;;;;1.27;1.17;;;;;;;;;;5509157;23;20732;-59
2023/03/15 09:20:15;;;;;;;1.60;1.10;;;;;;;;;;5482445;23;20022;-59
2023/03/15 09:22:26;;;;;;;2.03;1.23;;;;;;;;;;5508878;23;20592;-59
2023/03/15 09:24:37;;;;;;;1.40;1.00;;;;;;;;;;5508765;23;20216;-59
2023/03/15 09:26:47;;;;;;;1.38;1.27;;;;;;;;;;5509609;23;20082;-59
2023/03/15 09:28:57;;;;;;;1.35;1.20;;;;;;;;;;5508124;23;31696;-59
2023/03/15 09:31:08;;;;;;;1.45;1.35;;;;;;;;;;5508712;23;20124;-59
2023/03/15 09:33:21;;;;;;;1.77;1.40;;;;;;;;;;5509996;23;20005;-59
2023/03/15 09:35:31;;;;;;;1.20;1.10;;;;;;;;;;5483396;23;20061;-59
2023/03/15 09:37:42;;;;;;;1.50;1.10;;;;;;;;;;5508072;23;32991;-59
2023/03/15 09:39:52;;;;;;;1.08;0.98;;;;;;;;;;5482728;23;20020;-58
2023/03/15 09:42:10;;;;;;;1.23;1.10;;;;;;;;;;5510111;23;20100;-59
2023/03/15 09:44:32;;;;;;;1.30;1.00;;;;;;;;;;5483132;23;20580;-58
2023/03/15 09:47:09;;;;;;;1.73;1.00;;;;;;;;;;5509566;23;20630;-59
2023/03/15 09:49:38;;;;;;;1.40;1.30;;;;;;;;;;5509545;23;20076;-59
2023/03/15 09:52:38;;;;;;;1.92;1.10;;;;;;;;;;5484335;23;20006;-58
2023/03/15 09:55:16;;;;;;;1.17;1.02;;;;;;;;;;5378266;23;20906;-59
2023/03/15 09:57:37;;;;;;;1.42;0.90;;;;;;;;;;5379581;23;20008;-58
2023/03/15 09:59:51;;;;;;;0.98;0.70;;;;;;;;;;5445424;23;20078;-59
2023/03/15 10:02:17;;;;;;;1.48;0.90;;;;;;;;;;5483633;23;20006;-59
2023/03/15 10:04:29;;;;;;;1.75;0.80;;;;;;;;;;5509853;23;20030;-59
2023/03/15 10:06:44;;;;;;;1.13;0.80;;;;;;;;;;5510518;23;20006;-58
2023/03/15 10:08:57;;;;;;;1.15;0.90;;;;;;;;;;5485243;23;20053;-59
2023/03/15 10:11:10;;;;;;;1.05;0.90;;;;;;;;;;5509095;23;20006;-59
2023/03/15 10:13:25;;;;;;;1.05;0.90;;;;;;;;;;5509733;23;20010;-59
2023/03/15 10:15:50;;;;;;;1.02;0.80;;;;;;;;;;5509272;23;20014;-60
2023/03/15 10:18:15;;;;;;;0.85;0.65;;;;;;;;;;5483483;23;20015;-59
2023/03/15 10:20:28;;;;;;;1.35;0.70;;;;;;;;;;5484023;23;20513;-59
2023/03/15 10:22:59;;;;;;;1.40;0.80;;;;;;;;;;5483891;23;20015;-59
2023/03/15 10:25:25;;;;;;;1.13;0.70;;;;;;;;;;5483803;23;21315;-60
2023/03/15 10:27:57;;;;;;;1.00;0.63;;;;;;;;;;5484297;23;20010;-60
2023/03/15 10:30:17;;;;;;;1.55;0.60;;;;;;;;;;5483525;23;20022;-61
2023/03/15 10:32:33;;;;;;;0.60;0.60;;;;;;;;;;5457995;23;20058;-60
2023/03/15 10:34:47;;;;;;;1.00;0.70;;;;;;;;;;5483094;23;20011;-60
2023/03/15 10:36:57;;;;;;;1.30;0.60;;;;;;;;;;5483362;23;20231;-60
2023/03/15 10:39:09;;;;;;;1.50;0.70;;;;;;;;;;5482933;23;20022;-60
2023/03/15 10:41:37;;;;;;;1.20;0.70;;;;;;;;;;5483353;23;20014;-61
2023/03/15 10:43:57;;;;;;;0.82;0.50;;;;;;;;;;5484265;23;20065;-60
2023/03/15 10:46:20;;;;;;;0.65;0.40;;;;;;;;;;5483852;23;20015;-60
2023/03/15 10:48:33;;;;;;;0.80;0.60;;;;;;;;;;5510590;23;20006;-60
2023/03/15 10:50:43;;;;;;;0.80;0.50;;;;;;;;;;5509744;23;20265;-60
2023/03/15 10:52:56;;;;;;;1.05;0.52;;;;;;;;;;5509192;23;25689;-60
2023/03/15 10:55:13;;;;;;;0.57;0.50;;;;;;;;;;5509322;23;20540;-60
2023/03/15 10:57:27;;;;;;;0.95;0.50;;;;;;;;;;5483403;23;20035;-61
2023/03/15 10:59:53;;;;;;;0.98;0.60;;;;;;;;;;5483289;23;20010;-60
2023/03/15 11:02:19;;;;;;;1.08;0.60;;;;;;;;;;5509855;23;20155;-60
2023/03/15 11:04:30;;;;;;;1.08;0.70;;;;;;;;;;5509510;23;20010;-60
2023/03/15 11:06:43;;;;;;;1.58;0.70;;;;;;;;;;5483260;23;20524;-60
2023/03/15 11:09:07;;;;;;;0.63;0.40;;;;;;;;;;5509705;23;20014;-61
2023/03/15 11:11:17;;;;;;;1.27;0.90;;;;;;;;;;5509618;23;20455;-60
2023/03/15 11:13:29;;;;;;;1.42;0.60;;;;;;;;;;5509172;23;20093;-60
2023/03/15 11:15:47;;;;;;;0.82;0.52;;;;;;;;;;5509817;23;20046;-60
2023/03/15 11:17:57;;;;;;;0.82;0.60;;;;;;;;;;5508984;23;20010;-61
2023/03/15 11:20:29;;;;;;;0.88;0.50;;;;;;;;;;5482530;23;20014;-60
2023/03/15 11:22:40;;;;;;;1.13;0.30;;;;;;;;;;5483537;23;20093;-60
2023/03/15 11:24:53;;;;;;;0.50;0.40;;;;;;;;;;5510254;23;20595;-61
2023/03/15 11:27:11;;;;;;;0.70;0.30;;;;;;;;;;5510052;23;20041;-61
2023/03/15 11:29:27;;;;;;;0.55;0.38;;;;;;;;;;5482857;23;20114;-61
2023/03/15 11:31:38;;;;;;;0.87;0.50;;;;;;;;;;5482978;23;20057;-60
2023/03/15 11:34:24;;;;;;;0.65;0.30;;;;;;;;;;5482579;23;20301;-60
2023/03/15 11:36:39;;;;;;;0.88;0.43;;;;;;;;;;5483188;23;20045;-60
2023/03/15 11:38:52;;;;;;;0.70;0.43;;;;;;;;;;5484117;23;20010;-60
2023/03/15 11:41:21;;;;;;;0.75;0.50;;;;;;;;;;5510086;23;19998;-60
2023/03/15 11:43:44;;;;;;;0.65;0.32;;;;;;;;;;5509419;23;20006;-59
2023/03/15 11:45:57;;;;;;;1.23;0.60;;;;;;;;;;5510619;23;20025;-59
2023/03/15 11:48:42;;;;;;;0.80;0.40;;;;;;;;;;5439501;23;20090;-60
2023/03/15 11:50:54;;;;;;;1.17;0.43;;;;;;;;;;5510021;23;20904;-61
2023/03/15 11:53:05;;;;;;;0.80;0.40;;;;;;;;;;5510602;23;20006;-63
2023/03/15 11:55:24;;;;;;;1.17;0.38;;;;;;;;;;5483941;23;20552;-60
2023/03/15 11:57:38;;;;;;;1.30;0.50;;;;;;;;;;5484251;23;20010;-60
2023/03/15 11:59:49;;;;;;;0.28;0.20;;;;;;;;;;5509380;23;20094;-60
2023/03/15 12:02:23;;;;;;;0.30;0.30;;;;;;;;;;5482729;23;20090;-60
2023/03/15 12:04:33;;;;;;;0.77;0.38;;;;;;;;;;5450128;23;20014;-60
2023/03/15 12:06:43;;;;;;;0.43;0.40;;;;;;;;;;5509167;23;20069;-60
2023/03/15 12:08:54;;;;;;;1.60;0.50;;;;;;;;;;5508831;23;20010;-60
2023/03/15 12:11:20;;;;;;;1.33;0.43;;;;;;;;;;5482443;23;20292;-61
2023/03/15 12:13:30;;;;;;;0.45;0.40;;;;;;;;;;5507663;23;20547;-60
2023/03/15 12:15:43;;;;;;;1.08;0.50;;;;;;;;;;5509381;23;20006;-60
2023/03/15 12:17:55;;;;;;;1.08;0.40;;;;;;;;;;5482941;23;20018;-60
2023/03/15 12:20:19;;;;;;;0.65;0.47;;;;;;;;;;5508770;23;20010;-59
2023/03/15 12:22:32;;;;;;;0.95;0.40;;;;;;;;;;5507849;23;20040;-60
2023/03/15 12:24:44;;;;;;;1.23;0.60;;;;;;;;;;5482568;23;20007;-60
2023/03/15 12:27:12;;;;;;;0.80;0.40;;;;;;;;;;5458683;23;20022;-60
2023/03/15 12:29:25;;;;;;;0.40;0.30;;;;;;;;;;5481698;23;20014;-60
2023/03/15 12:31:43;;;;;;;0.57;0.40;;;;;;;;;;5458394;23;20478;-60
2023/03/15 12:33:57;;;;;;;0.55;0.40;;;;;;;;;;5457927;23;20010;-61
2023/03/15 12:36:14;;;;;;;0.75;0.40;;;;;;;;;;5483578;23;20037;-60
2023/03/15 12:38:31;;;;;;;0.70;0.30;;;;;;;;;;5483291;23;20062;-60
2023/03/15 12:40:55;;;;;;;0.30;0.30;;;;;;;;;;5482333;23;20180;-60
2023/03/15 12:43:06;;;;;;;0.90;0.47;;;;;;;;;;5509609;23;20041;-59
2023/03/15 12:45:16;;;;;;;0.65;0.40;;;;;;;;;;5509650;23;20018;-60
2023/03/15 12:47:45;;;;;;;0.80;0.38;;;;;;;;;;5509459;23;20014;-60
2023/03/15 12:50:34;;;;;;;1.13;0.40;;;;;;;;;;5509369;23;20029;-60
2023/03/15 12:52:46;;;;;;;0.70;0.47;;;;;;;;;;5509810;23;20556;-60
2023/03/15 12:55:11;;;;;;;1.45;0.50;;;;;;;;;;5458497;23;20022;-60
2023/03/15 12:57:25;;;;;;;0.73;0.40;;;;;;;;;;5483389;23;20110;-60
2023/03/15 13:00:10;;;;;;;0.82;0.40;;;;;;;;;;5483506;23;20567;-61
2023/03/15 13:02:31;;;;;;;0.52;0.30;;;;;;;;;;5474931;23;20010;-60
2023/03/15 13:04:41;;;;;;;0.77;0.40;;;;;;;;;;5483142;23;20002;-60
2023/03/15 13:06:58;;;;;;;0.30;0.30;;;;;;;;;;5483349;23;20038;-60
2023/03/15 13:09:36;;;;;;;0.73;0.30;;;;;;;;;;5509651;23;20002;-60
2023/03/15 13:11:55;;;;;;;0.55;0.40;;;;;;;;;;5483403;23;20006;-60
2023/03/15 13:14:11;;;;;;;0.60;0.40;;;;;;;;;;5482884;23;19990;-60
2023/03/15 13:16:28;;;;;;;1.35;0.60;;;;;;;;;;5509058;23;20038;-61
2023/03/15 13:18:47;;;;;;;0.40;0.40;;;;;;;;;;5509184;23;20328;-60
2023/03/15 13:21:00;;;;;;;0.50;0.40;;;;;;;;;;5458823;23;20122;-59
2023/03/15 13:23:19;;;;;;;0.93;0.47;;;;;;;;;;5483874;23;20105;-59
2023/03/15 13:25:36;;;;;;;0.85;0.38;;;;;;;;;;5460313;23;20005;-60
2023/03/15 13:27:58;;;;;;;0.40;0.30;;;;;;;;;;5485455;23;20014;-60
2023/03/15 13:30:38;;;;;;;0.60;0.30;;;;;;;;;;5509638;23;20021;-60
2023/03/15 13:33:01;;;;;;;0.47;0.40;;;;;;;;;;5473357;23;20034;-60
2023/03/15 13:35:12;;;;;;;0.35;0.30;;;;;;;;;;5510812;23;20105;-60
2023/03/15 13:37:28;;;;;;;0.40;0.30;;;;;;;;;;5510685;23;27608;-60